sensor_id;sensor_type;location;lat;lon;timestamp;pressure;altitude;pressure_sealevel;temperature;humidity
69214;BME280;56325;47.030;18.518;2022-09-13T00:02:25;100332.72;;;14.32;68.94
69214;BME280;56325;47.030;18.518;2022-09-13T00:04:59;100331.75;;;14.35;68.95
69214;BME280;56325;47.030;18.518;2022-09-13T00:07:34;100340.81;;;14.36;68.74
69214;BME280;56325;47.030;18.518;2022-09-13T00:10:09;100331.87;;;14.26;69.31
69214;BME280;56325;47.030;18.518;2022-09-13T00:12:43;100331.31;;;14.22;69.25
69214;BME280;56325;47.030;18.518;2022-09-13T00:15:19;100330.19;;;14.14;69.35
69214;BME280;56325;47.030;18.518;2022-09-13T00:17:53;100337.44;;;14.11;69.27
69214;BME280;56325;47.030;18.518;2022-09-13T00:20:28;100332.78;;;14.03;69.59
69214;BME280;56325;47.030;18.518;2022-09-13T00:23:03;100333.06;;;14.05;69.45
69214;BME280;56325;47.030;18.518;2022-09-13T00:25:37;100329.75;;;14.01;69.66
69214;BME280;56325;47.030;18.518;2022-09-13T00:28:12;100336.47;;;14.15;69.28
69214;BME280;56325;47.030;18.518;2022-09-13T00:30:46;100329.78;;;14.21;69.00
69214;BME280;56325;47.030;18.518;2022-09-13T00:33:20;100332.06;;;14.23;68.81
69214;BME280;56325;47.030;18.518;2022-09-13T00:35:55;100333.16;;;14.46;67.93
69214;BME280;56325;47.030;18.518;2022-09-13T00:38:30;100345.06;;;14.17;68.81
69214;BME280;56325;47.030;18.518;2022-09-13T00:41:07;100343.13;;;14.58;66.92
69214;BME280;56325;47.030;18.518;2022-09-13T00:43:46;100343.97;;;14.43;67.08
69214;BME280;56325;47.030;18.518;2022-09-13T00:46:26;100350.72;;;13.93;68.52
69214;BME280;56325;47.030;18.518;2022-09-13T00:49:11;100359.22;;;13.89;68.22
69214;BME280;56325;47.030;18.518;2022-09-13T00:51:49;100349.00;;;13.95;67.80
69214;BME280;56325;47.030;18.518;2022-09-13T00:54:30;100354.44;;;13.90;67.97
69214;BME280;56325;47.030;18.518;2022-09-13T00:57:08;100358.31;;;13.77;68.37
69214;BME280;56325;47.030;18.518;2022-09-13T00:59:46;100356.78;;;13.47;69.82
69214;BME280;56325;47.030;18.518;2022-09-13T01:02:23;100353.72;;;13.45;70.04
69214;BME280;56325;47.030;18.518;2022-09-13T01:04:57;100347.81;;;13.37;70.23
69214;BME280;56325;47.030;18.518;2022-09-13T01:07:32;100344.69;;;13.44;70.31
69214;BME280;56325;47.030;18.518;2022-09-13T01:10:09;100340.78;;;13.51;70.32
69214;BME280;56325;47.030;18.518;2022-09-13T01:12:47;100340.28;;;13.67;69.75
69214;BME280;56325;47.030;18.518;2022-09-13T01:15:24;100343.44;;;13.75;69.79
69214;BME280;56325;47.030;18.518;2022-09-13T01:17:59;100345.53;;;13.65;69.92
69214;BME280;56325;47.030;18.518;2022-09-13T01:20:43;100351.72;;;13.75;69.36
69214;BME280;56325;47.030;18.518;2022-09-13T01:23:43;100351.16;;;13.86;69.21
69214;BME280;56325;47.030;18.518;2022-09-13T01:27:03;100354.97;;;13.73;69.34
69214;BME280;56325;47.030;18.518;2022-09-13T01:30:05;100352.59;;;13.52;69.69
69214;BME280;56325;47.030;18.518;2022-09-13T01:33:11;100351.16;;;13.41;69.96
69214;BME280;56325;47.030;18.518;2022-09-13T01:36:04;100353.13;;;13.26;70.36
69214;BME280;56325;47.030;18.518;2022-09-13T01:38:54;100350.28;;;13.35;70.18
69214;BME280;56325;47.030;18.518;2022-09-13T01:41:56;100343.25;;;13.49;69.33
69214;BME280;56325;47.030;18.518;2022-09-13T01:44:43;100340.75;;;13.36;69.71
69214;BME280;56325;47.030;18.518;2022-09-13T01:47:26;100341.41;;;13.17;70.10
69214;BME280;56325;47.030;18.518;2022-09-13T01:50:11;100337.41;;;13.18;70.26
69214;BME280;56325;47.030;18.518;2022-09-13T01:52:54;100327.22;;;13.24;70.26
69214;BME280;56325;47.030;18.518;2022-09-13T01:55:32;100323.72;;;13.53;69.27
69214;BME280;56325;47.030;18.518;2022-09-13T01:58:17;100328.19;;;13.50;69.14
69214;BME280;56325;47.030;18.518;2022-09-13T02:00:55;100324.19;;;13.51;69.34
69214;BME280;56325;47.030;18.518;2022-09-13T02:03:38;100331.63;;;13.45;69.62
69214;BME280;56325;47.030;18.518;2022-09-13T02:06:18;100329.91;;;13.33;69.76
69214;BME280;56325;47.030;18.518;2022-09-13T02:08:56;100325.16;;;13.33;69.93
69214;BME280;56325;47.030;18.518;2022-09-13T02:11:33;100334.56;;;13.27;70.04
69214;BME280;56325;47.030;18.518;2022-09-13T02:14:13;100325.72;;;13.37;69.72
69214;BME280;56325;47.030;18.518;2022-09-13T02:16:51;100322.75;;;13.26;69.64
69214;BME280;56325;47.030;18.518;2022-09-13T02:19:34;100325.41;;;13.21;69.35
69214;BME280;56325;47.030;18.518;2022-09-13T02:22:11;100318.37;;;13.20;69.37
69214;BME280;56325;47.030;18.518;2022-09-13T02:24:50;100309.97;;;12.99;69.36
69214;BME280;56325;47.030;18.518;2022-09-13T02:27:29;100312.69;;;12.85;69.90
69214;BME280;56325;47.030;18.518;2022-09-13T02:30:08;100318.41;;;12.57;70.65
69214;BME280;56325;47.030;18.518;2022-09-13T02:32:47;100315.75;;;12.39;71.49
69214;BME280;56325;47.030;18.518;2022-09-13T02:35:28;100312.19;;;12.47;70.79
69214;BME280;56325;47.030;18.518;2022-09-13T02:38:13;100303.84;;;12.57;70.74
69214;BME280;56325;47.030;18.518;2022-09-13T02:40:55;100303.28;;;12.53;70.66
69214;BME280;56325;47.030;18.518;2022-09-13T02:43:34;100300.50;;;12.53;70.64
69214;BME280;56325;47.030;18.518;2022-09-13T02:46:19;100300.41;;;12.47;70.93
69214;BME280;56325;47.030;18.518;2022-09-13T02:48:58;100301.69;;;12.61;70.33
69214;BME280;56325;47.030;18.518;2022-09-13T02:51:43;100300.44;;;12.62;70.37
69214;BME280;56325;47.030;18.518;2022-09-13T02:54:26;100309.72;;;12.50;70.90
69214;BME280;56325;47.030;18.518;2022-09-13T02:57:05;100300.56;;;12.43;71.08
69214;BME280;56325;47.030;18.518;2022-09-13T02:59:44;100301.16;;;12.47;71.22
69214;BME280;56325;47.030;18.518;2022-09-13T03:02:21;100307.84;;;12.56;70.99
69214;BME280;56325;47.030;18.518;2022-09-13T03:04:58;100296.22;;;12.52;71.14
69214;BME280;56325;47.030;18.518;2022-09-13T03:07:34;100302.31;;;12.56;71.44
69214;BME280;56325;47.030;18.518;2022-09-13T03:10:10;100311.13;;;12.69;70.24
69214;BME280;56325;47.030;18.518;2022-09-13T03:13:05;100312.66;;;12.46;69.46
69214;BME280;56325;47.030;18.518;2022-09-13T03:15:53;100301.78;;;12.19;69.66
69214;BME280;56325;47.030;18.518;2022-09-13T03:18:42;100307.22;;;12.13;69.72
69214;BME280;56325;47.030;18.518;2022-09-13T03:21:35;100318.19;;;11.89;70.49
69214;BME280;56325;47.030;18.518;2022-09-13T03:24:19;100302.38;;;12.23;69.81
69214;BME280;56325;47.030;18.518;2022-09-13T03:27:06;100313.12;;;12.44;68.91
69214;BME280;56325;47.030;18.518;2022-09-13T03:29:49;100304.63;;;12.57;68.58
69214;BME280;56325;47.030;18.518;2022-09-13T03:32:34;100298.75;;;12.64;68.02
69214;BME280;56325;47.030;18.518;2022-09-13T03:35:17;100299.31;;;12.21;69.78
69214;BME280;56325;47.030;18.518;2022-09-13T03:37:57;100299.50;;;12.17;70.38
69214;BME280;56325;47.030;18.518;2022-09-13T03:40:39;100291.06;;;12.21;70.10
69214;BME280;56325;47.030;18.518;2022-09-13T03:43:18;100283.81;;;14.24;84.93
69214;BME280;56325;47.030;18.518;2022-09-13T03:45:58;100293.50;;;13.64;69.41
69214;BME280;56325;47.030;18.518;2022-09-13T03:48:36;100297.13;;;13.55;68.00
69214;BME280;56325;47.030;18.518;2022-09-13T03:51:12;100290.66;;;13.29;68.57
69214;BME280;56325;47.030;18.518;2022-09-13T03:53:52;100292.91;;;13.01;68.83
69214;BME280;56325;47.030;18.518;2022-09-13T03:56:30;100293.50;;;12.66;69.70
69214;BME280;56325;47.030;18.518;2022-09-13T03:59:04;100300.22;;;12.51;69.66
69214;BME280;56325;47.030;18.518;2022-09-13T04:01:38;100289.47;;;12.29;71.05
69214;BME280;56325;47.030;18.518;2022-09-13T04:04:13;100299.97;;;12.15;71.42
69214;BME280;56325;47.030;18.518;2022-09-13T04:06:48;100294.06;;;12.08;71.20
69214;BME280;56325;47.030;18.518;2022-09-13T04:09:22;100294.53;;;12.06;71.35
69214;BME280;56325;47.030;18.518;2022-09-13T04:11:58;100290.75;;;11.95;72.01
69214;BME280;56325;47.030;18.518;2022-09-13T04:14:32;100289.06;;;11.97;71.93
69214;BME280;56325;47.030;18.518;2022-09-13T04:17:06;100297.16;;;12.01;71.25
69214;BME280;56325;47.030;18.518;2022-09-13T04:19:41;100292.31;;;11.87;71.86
69214;BME280;56325;47.030;18.518;2022-09-13T04:22:19;100295.53;;;11.85;72.17
69214;BME280;56325;47.030;18.518;2022-09-13T04:24:53;100289.69;;;11.92;71.58
69214;BME280;56325;47.030;18.518;2022-09-13T04:27:35;100303.53;;;11.83;72.31
69214;BME280;56325;47.030;18.518;2022-09-13T04:30:10;100296.75;;;12.17;71.30
69214;BME280;56325;47.030;18.518;2022-09-13T04:32:44;100287.53;;;14.21;84.96
69214;BME280;56325;47.030;18.518;2022-09-13T04:35:19;100288.47;;;14.99;81.18
69214;BME280;56325;47.030;18.518;2022-09-13T04:37:54;100284.94;;;14.32;67.32
69214;BME280;56325;47.030;18.518;2022-09-13T04:40:29;100291.34;;;13.53;67.41
69214;BME280;56325;47.030;18.518;2022-09-13T04:43:05;100295.56;;;13.10;68.17
69214;BME280;56325;47.030;18.518;2022-09-13T04:45:39;100294.94;;;12.62;69.75
69214;BME280;56325;47.030;18.518;2022-09-13T04:48:13;100287.31;;;12.33;70.46
69214;BME280;56325;47.030;18.518;2022-09-13T04:50:48;100294.28;;;12.43;71.11
69214;BME280;56325;47.030;18.518;2022-09-13T04:53:22;100303.62;;;12.45;71.03
69214;BME280;56325;47.030;18.518;2022-09-13T04:55:59;100297.50;;;12.18;71.42
69214;BME280;56325;47.030;18.518;2022-09-13T04:58:36;100296.69;;;12.02;71.96
69214;BME280;56325;47.030;18.518;2022-09-13T05:01:10;100305.56;;;12.06;72.00
69214;BME280;56325;47.030;18.518;2022-09-13T05:03:44;100300.22;;;12.03;72.70
69214;BME280;56325;47.030;18.518;2022-09-13T05:06:19;100302.22;;;12.26;72.08
69214;BME280;56325;47.030;18.518;2022-09-13T05:08:54;100307.59;;;12.21;72.32
69214;BME280;56325;47.030;18.518;2022-09-13T05:11:29;100305.13;;;13.68;83.05
69214;BME280;56325;47.030;18.518;2022-09-13T05:14:04;100286.22;;;14.51;80.69
69214;BME280;56325;47.030;18.518;2022-09-13T05:16:39;100292.34;;;15.07;77.49
69214;BME280;56325;47.030;18.518;2022-09-13T05:19:13;100292.13;;;15.36;75.98
69214;BME280;56325;47.030;18.518;2022-09-13T05:21:47;100292.53;;;15.55;72.92
69214;BME280;56325;47.030;18.518;2022-09-13T05:24:21;100291.91;;;15.71;72.01
69214;BME280;56325;47.030;18.518;2022-09-13T05:27:01;100291.47;;;15.47;65.86
69214;BME280;56325;47.030;18.518;2022-09-13T05:29:36;100287.69;;;15.19;65.62
69214;BME280;56325;47.030;18.518;2022-09-13T05:32:10;100296.53;;;14.76;66.47
69214;BME280;56325;47.030;18.518;2022-09-13T05:34:45;100298.41;;;14.85;67.25
69214;BME280;56325;47.030;18.518;2022-09-13T05:37:19;100293.47;;;14.49;67.17
69214;BME280;56325;47.030;18.518;2022-09-13T05:39:54;100297.72;;;14.29;67.89
69214;BME280;56325;47.030;18.518;2022-09-13T05:42:44;100306.69;;;14.24;68.31
69214;BME280;56325;47.030;18.518;2022-09-13T05:45:19;100300.31;;;14.18;68.56
69214;BME280;56325;47.030;18.518;2022-09-13T05:47:54;100308.91;;;14.20;69.02
69214;BME280;56325;47.030;18.518;2022-09-13T05:50:28;100310.38;;;14.01;69.87
69214;BME280;56325;47.030;18.518;2022-09-13T05:53:22;100312.47;;;14.06;70.45
69214;BME280;56325;47.030;18.518;2022-09-13T05:55:56;100312.47;;;14.06;70.94
69214;BME280;56325;47.030;18.518;2022-09-13T05:58:31;100325.50;;;14.20;70.57
69214;BME280;56325;47.030;18.518;2022-09-13T06:01:07;100332.63;;;14.27;69.84
69214;BME280;56325;47.030;18.518;2022-09-13T06:03:41;100325.94;;;14.33;69.62
69214;BME280;56325;47.030;18.518;2022-09-13T06:06:16;100325.53;;;14.05;71.33
69214;BME280;56325;47.030;18.518;2022-09-13T06:08:51;100329.22;;;14.17;71.35
69214;BME280;56325;47.030;18.518;2022-09-13T06:11:26;100330.47;;;14.51;72.86
69214;BME280;56325;47.030;18.518;2022-09-13T06:14:01;100335.69;;;15.36;76.24
69214;BME280;56325;47.030;18.518;2022-09-13T06:16:36;100322.84;;;15.96;74.33
69214;BME280;56325;47.030;18.518;2022-09-13T06:19:10;100322.13;;;15.38;69.07
69214;BME280;56325;47.030;18.518;2022-09-13T06:21:44;100312.72;;;15.30;69.46
69214;BME280;56325;47.030;18.518;2022-09-13T06:24:19;100315.03;;;15.11;69.32
69214;BME280;56325;47.030;18.518;2022-09-13T06:26:53;100312.75;;;15.09;69.36
69214;BME280;56325;47.030;18.518;2022-09-13T06:29:27;100311.47;;;14.85;69.94
69214;BME280;56325;47.030;18.518;2022-09-13T06:32:03;100318.59;;;14.91;69.61
69214;BME280;56325;47.030;18.518;2022-09-13T06:34:38;100319.81;;;15.11;69.22
69214;BME280;56325;47.030;18.518;2022-09-13T06:37:12;100318.56;;;15.12;69.33
69214;BME280;56325;47.030;18.518;2022-09-13T06:39:46;100306.09;;;15.22;68.35
69214;BME280;56325;47.030;18.518;2022-09-13T06:42:21;100311.69;;;15.27;68.13
69214;BME280;56325;47.030;18.518;2022-09-13T06:44:55;100315.16;;;15.22;68.46
69214;BME280;56325;47.030;18.518;2022-09-13T06:47:31;100316.62;;;15.44;67.76
69214;BME280;56325;47.030;18.518;2022-09-13T06:50:06;100321.44;;;15.49;67.91
69214;BME280;56325;47.030;18.518;2022-09-13T06:52:41;100322.94;;;15.76;66.56
69214;BME280;56325;47.030;18.518;2022-09-13T06:55:15;100325.00;;;15.81;65.83
69214;BME280;56325;47.030;18.518;2022-09-13T06:57:49;100327.63;;;15.58;65.85
69214;BME280;56325;47.030;18.518;2022-09-13T07:00:24;100326.72;;;15.47;66.66
69214;BME280;56325;47.030;18.518;2022-09-13T07:02:59;100322.22;;;15.49;66.92
69214;BME280;56325;47.030;18.518;2022-09-13T07:05:34;100336.22;;;15.40;67.80
69214;BME280;56325;47.030;18.518;2022-09-13T07:08:08;100323.47;;;15.48;68.36
69214;BME280;56325;47.030;18.518;2022-09-13T07:10:42;100335.31;;;15.80;67.27
69214;BME280;56325;47.030;18.518;2022-09-13T07:13:16;100336.50;;;15.68;67.20
69214;BME280;56325;47.030;18.518;2022-09-13T07:15:51;100332.78;;;15.77;66.43
69214;BME280;56325;47.030;18.518;2022-09-13T07:18:26;100331.00;;;15.73;65.44
69214;BME280;56325;47.030;18.518;2022-09-13T07:21:02;100327.81;;;15.86;64.76
69214;BME280;56325;47.030;18.518;2022-09-13T07:23:38;100326.22;;;16.11;64.52
69214;BME280;56325;47.030;18.518;2022-09-13T07:26:12;100325.00;;;16.18;63.27
69214;BME280;56325;47.030;18.518;2022-09-13T07:28:48;100329.41;;;16.35;61.79
69214;BME280;56325;47.030;18.518;2022-09-13T07:31:25;100332.44;;;16.00;63.66
69214;BME280;56325;47.030;18.518;2022-09-13T07:34:03;100330.94;;;15.99;64.31
69214;BME280;56325;47.030;18.518;2022-09-13T07:36:37;100329.28;;;16.19;64.04
69214;BME280;56325;47.030;18.518;2022-09-13T07:39:11;100321.87;;;16.53;62.10
69214;BME280;56325;47.030;18.518;2022-09-13T07:41:51;100323.66;;;16.56;61.57
69214;BME280;56325;47.030;18.518;2022-09-13T07:44:25;100333.62;;;16.79;61.01
69214;BME280;56325;47.030;18.518;2022-09-13T07:47:00;100330.66;;;16.88;61.19
69214;BME280;56325;47.030;18.518;2022-09-13T07:49:35;100338.94;;;16.77;59.70
69214;BME280;56325;47.030;18.518;2022-09-13T07:52:10;100338.28;;;17.04;60.10
69214;BME280;56325;47.030;18.518;2022-09-13T07:54:44;100338.44;;;16.79;60.16
69214;BME280;56325;47.030;18.518;2022-09-13T07:57:19;100332.16;;;16.89;60.45
69214;BME280;56325;47.030;18.518;2022-09-13T07:59:53;100333.72;;;17.01;58.66
69214;BME280;56325;47.030;18.518;2022-09-13T08:02:28;100324.66;;;17.23;59.12
69214;BME280;56325;47.030;18.518;2022-09-13T08:05:05;100334.03;;;17.43;59.07
69214;BME280;56325;47.030;18.518;2022-09-13T08:07:39;100328.97;;;17.58;57.72
69214;BME280;56325;47.030;18.518;2022-09-13T08:10:14;100318.91;;;17.66;58.73
69214;BME280;56325;47.030;18.518;2022-09-13T08:12:48;100319.16;;;17.74;58.33
69214;BME280;56325;47.030;18.518;2022-09-13T08:15:22;100317.63;;;17.95;58.29
69214;BME280;56325;47.030;18.518;2022-09-13T08:17:56;100317.59;;;18.06;58.94
69214;BME280;56325;47.030;18.518;2022-09-13T08:20:34;100310.25;;;18.14;55.74
69214;BME280;56325;47.030;18.518;2022-09-13T08:23:10;100306.91;;;18.32;55.34
69214;BME280;56325;47.030;18.518;2022-09-13T08:25:44;100313.97;;;18.39;55.63
69214;BME280;56325;47.030;18.518;2022-09-13T08:28:20;100317.25;;;18.43;56.07
69214;BME280;56325;47.030;18.518;2022-09-13T08:31:04;100324.53;;;18.63;54.50
69214;BME280;56325;47.030;18.518;2022-09-13T08:33:38;100320.19;;;18.73;55.79
69214;BME280;56325;47.030;18.518;2022-09-13T08:36:20;100319.97;;;18.60;54.68
69214;BME280;56325;47.030;18.518;2022-09-13T08:38:57;100326.50;;;18.79;54.58
69214;BME280;56325;47.030;18.518;2022-09-13T08:44:47;100314.38;;;18.71;55.58
69214;BME280;56325;47.030;18.518;2022-09-13T08:47:27;100312.09;;;18.75;54.99
69214;BME280;56325;47.030;18.518;2022-09-13T08:50:12;100305.19;;;18.87;51.61
69214;BME280;56325;47.030;18.518;2022-09-13T08:53:11;100299.66;;;19.17;53.92
69214;BME280;56325;47.030;18.518;2022-09-13T08:55:53;100302.47;;;19.53;53.40
69214;BME280;56325;47.030;18.518;2022-09-13T08:58:48;100297.78;;;19.31;53.12
69214;BME280;56325;47.030;18.518;2022-09-13T09:01:34;100304.94;;;19.62;53.29
69214;BME280;56325;47.030;18.518;2022-09-13T09:04:15;100295.47;;;19.95;51.39
69214;BME280;56325;47.030;18.518;2022-09-13T09:07:02;100296.47;;;19.97;48.93
69214;BME280;56325;47.030;18.518;2022-09-13T09:09:42;100296.66;;;20.29;48.71
69214;BME280;56325;47.030;18.518;2022-09-13T09:12:26;100294.78;;;20.38;48.90
69214;BME280;56325;47.030;18.518;2022-09-13T09:15:07;100295.25;;;20.42;47.02
69214;BME280;56325;47.030;18.518;2022-09-13T09:17:50;100285.59;;;20.43;46.86
69214;BME280;56325;47.030;18.518;2022-09-13T09:20:30;100283.38;;;20.60;48.45
69214;BME280;56325;47.030;18.518;2022-09-13T09:23:12;100281.09;;;20.77;46.60
69214;BME280;56325;47.030;18.518;2022-09-13T09:25:59;100281.97;;;20.85;46.61
69214;BME280;56325;47.030;18.518;2022-09-13T09:28:38;100276.91;;;21.03;45.11
69214;BME280;56325;47.030;18.518;2022-09-13T09:31:15;100269.28;;;21.22;43.43
69214;BME280;56325;47.030;18.518;2022-09-13T09:34:02;100262.78;;;21.14;45.66
69214;BME280;56325;47.030;18.518;2022-09-13T09:36:44;100252.78;;;21.37;44.77
69214;BME280;56325;47.030;18.518;2022-09-13T09:39:24;100252.72;;;21.56;45.12
69214;BME280;56325;47.030;18.518;2022-09-13T09:42:10;100258.31;;;21.69;43.92
69214;BME280;56325;47.030;18.518;2022-09-13T09:44:48;100259.81;;;21.70;42.98
69214;BME280;56325;47.030;18.518;2022-09-13T09:47:26;100258.66;;;21.66;42.28
69214;BME280;56325;47.030;18.518;2022-09-13T09:50:07;100246.81;;;21.59;42.50
69214;BME280;56325;47.030;18.518;2022-09-13T09:52:45;100248.25;;;21.34;41.30
69214;BME280;56325;47.030;18.518;2022-09-13T09:55:24;100250.94;;;21.40;42.35
69214;BME280;56325;47.030;18.518;2022-09-13T09:58:03;100243.06;;;21.25;41.63
69214;BME280;56325;47.030;18.518;2022-09-13T10:00:50;100226.41;;;21.33;42.34
69214;BME280;56325;47.030;18.518;2022-09-13T10:03:27;100226.84;;;21.37;41.80
69214;BME280;56325;47.030;18.518;2022-09-13T10:06:05;100224.19;;;21.57;41.08
69214;BME280;56325;47.030;18.518;2022-09-13T10:08:43;100221.41;;;21.84;41.64
69214;BME280;56325;47.030;18.518;2022-09-13T10:11:21;100214.84;;;22.08;40.79
69214;BME280;56325;47.030;18.518;2022-09-13T10:14:01;100207.94;;;22.22;40.70
69214;BME280;56325;47.030;18.518;2022-09-13T10:16:36;100215.28;;;22.25;40.04
69214;BME280;56325;47.030;18.518;2022-09-13T10:19:23;100207.63;;;22.26;40.21
69214;BME280;56325;47.030;18.518;2022-09-13T10:22:02;100214.53;;;22.24;38.49
69214;BME280;56325;47.030;18.518;2022-09-13T10:25:13;100218.94;;;22.20;38.91
69214;BME280;56325;47.030;18.518;2022-09-13T10:28:15;100218.28;;;22.01;37.63
69214;BME280;56325;47.030;18.518;2022-09-13T13:43:31;100053.69;;;25.26;38.89
69214;BME280;56325;47.030;18.518;2022-09-13T14:47:20;100036.56;;;23.50;40.78
69214;BME280;56325;47.030;18.518;2022-09-13T15:03:02;100020.13;;;23.54;41.96
69214;BME280;56325;47.030;18.518;2022-09-13T15:05:38;100026.75;;;23.29;40.76
69214;BME280;56325;47.030;18.518;2022-09-13T15:08:38;100019.06;;;23.29;41.23
69214;BME280;56325;47.030;18.518;2022-09-13T15:11:27;100010.31;;;23.40;40.88
69214;BME280;56325;47.030;18.518;2022-09-13T15:14:24;100014.38;;;23.24;40.88
69214;BME280;56325;47.030;18.518;2022-09-13T15:17:07;100011.06;;;23.33;40.46
69214;BME280;56325;47.030;18.518;2022-09-13T15:19:46;100005.03;;;23.29;40.41
69214;BME280;56325;47.030;18.518;2022-09-13T15:22:23;100007.16;;;23.08;39.94
69214;BME280;56325;47.030;18.518;2022-09-13T15:24:59;100004.06;;;23.19;40.72
69214;BME280;56325;47.030;18.518;2022-09-13T15:27:43;100002.03;;;23.27;41.29
69214;BME280;56325;47.030;18.518;2022-09-13T15:30:24;100002.41;;;23.24;41.39
69214;BME280;56325;47.030;18.518;2022-09-13T15:36:12;99991.09;;;23.08;42.12
69214;BME280;56325;47.030;18.518;2022-09-13T15:39:01;99992.94;;;23.06;41.72
69214;BME280;56325;47.030;18.518;2022-09-13T15:41:37;99986.81;;;23.15;42.05
69214;BME280;56325;47.030;18.518;2022-09-13T15:44:12;99988.63;;;23.05;41.71
69214;BME280;56325;47.030;18.518;2022-09-13T15:46:48;99976.41;;;22.95;41.62
69214;BME280;56325;47.030;18.518;2022-09-13T15:49:26;99973.13;;;23.04;41.71
69214;BME280;56325;47.030;18.518;2022-09-13T15:52:02;99966.66;;;22.88;41.65
69214;BME280;56325;47.030;18.518;2022-09-13T15:54:39;99969.81;;;22.84;42.71
69214;BME280;56325;47.030;18.518;2022-09-13T15:57:17;99968.72;;;22.67;43.15
69214;BME280;56325;47.030;18.518;2022-09-13T15:59:53;99965.03;;;22.72;43.08
69214;BME280;56325;47.030;18.518;2022-09-13T16:02:30;99970.16;;;22.60;43.99
69214;BME280;56325;47.030;18.518;2022-09-13T16:05:06;99967.72;;;22.56;44.38
69214;BME280;56325;47.030;18.518;2022-09-13T16:07:42;99966.75;;;22.54;43.74
69214;BME280;56325;47.030;18.518;2022-09-13T16:10:18;99953.25;;;22.73;43.24
69214;BME280;56325;47.030;18.518;2022-09-13T16:12:53;99951.31;;;22.61;44.03
69214;BME280;56325;47.030;18.518;2022-09-13T16:15:27;99957.56;;;22.46;44.23
69214;BME280;56325;47.030;18.518;2022-09-13T16:18:01;99958.75;;;22.30;45.47
69214;BME280;56325;47.030;18.518;2022-09-13T16:20:36;99962.28;;;22.09;46.82
69214;BME280;56325;47.030;18.518;2022-09-13T16:23:11;99956.94;;;21.98;46.95
69214;BME280;56325;47.030;18.518;2022-09-13T16:25:46;99950.22;;;21.80;46.59
69214;BME280;56325;47.030;18.518;2022-09-13T16:28:21;99948.28;;;21.75;47.80
69214;BME280;56325;47.030;18.518;2022-09-13T16:30:55;99951.38;;;21.64;49.03
69214;BME280;56325;47.030;18.518;2022-09-13T16:33:29;99943.84;;;21.59;49.66
69214;BME280;56325;47.030;18.518;2022-09-13T16:36:04;99949.56;;;21.53;50.56
69214;BME280;56325;47.030;18.518;2022-09-13T16:38:40;99951.53;;;21.45;49.77
69214;BME280;56325;47.030;18.518;2022-09-13T16:41:14;99949.59;;;21.40;49.96
69214;BME280;56325;47.030;18.518;2022-09-13T16:43:48;99949.50;;;21.33;50.95
69214;BME280;56325;47.030;18.518;2022-09-13T16:46:23;99951.88;;;21.29;51.07
69214;BME280;56325;47.030;18.518;2022-09-13T16:48:57;99943.38;;;21.08;51.57
69214;BME280;56325;47.030;18.518;2022-09-13T16:51:32;99946.72;;;21.06;51.08
69214;BME280;56325;47.030;18.518;2022-09-13T16:54:08;99950.91;;;21.13;51.22
69214;BME280;56325;47.030;18.518;2022-09-13T16:56:42;99947.56;;;21.14;51.49
69214;BME280;56325;47.030;18.518;2022-09-13T16:59:16;99955.75;;;20.73;53.40
69214;BME280;56325;47.030;18.518;2022-09-13T17:01:50;99949.09;;;20.62;53.87
69214;BME280;56325;47.030;18.518;2022-09-13T17:04:25;99957.16;;;20.66;53.28
69214;BME280;56325;47.030;18.518;2022-09-13T17:06:59;99959.28;;;20.60;53.78
69214;BME280;56325;47.030;18.518;2022-09-13T17:09:37;99962.59;;;20.45;54.43
69214;BME280;56325;47.030;18.518;2022-09-13T17:12:13;99956.47;;;20.47;54.32
69214;BME280;56325;47.030;18.518;2022-09-13T17:14:47;99961.09;;;20.44;54.62
69214;BME280;56325;47.030;18.518;2022-09-13T17:17:22;99964.94;;;20.41;54.34
69214;BME280;56325;47.030;18.518;2022-09-13T17:19:56;99963.72;;;20.37;54.74
69214;BME280;56325;47.030;18.518;2022-09-13T17:22:31;99970.47;;;20.28;54.79
69214;BME280;56325;47.030;18.518;2022-09-13T17:25:08;99971.41;;;20.17;55.99
69214;BME280;56325;47.030;18.518;2022-09-13T17:27:43;99968.78;;;20.06;56.41
69214;BME280;56325;47.030;18.518;2022-09-13T17:30:17;99968.13;;;20.00;56.56
69214;BME280;56325;47.030;18.518;2022-09-13T17:32:51;99963.81;;;19.99;56.17
69214;BME280;56325;47.030;18.518;2022-09-13T17:35:26;99971.25;;;20.10;63.25
69214;BME280;56325;47.030;18.518;2022-09-13T17:38:02;99966.69;;;20.25;64.33
69214;BME280;56325;47.030;18.518;2022-09-13T17:40:38;99959.62;;;20.24;59.88
69214;BME280;56325;47.030;18.518;2022-09-13T17:43:13;99982.44;;;20.10;57.70
69214;BME280;56325;47.030;18.518;2022-09-13T17:45:47;99980.91;;;19.77;58.39
69214;BME280;56325;47.030;18.518;2022-09-13T17:48:22;99985.13;;;19.83;58.00
69214;BME280;56325;47.030;18.518;2022-09-13T17:51:00;99985.13;;;19.64;58.22
69214;BME280;56325;47.030;18.518;2022-09-13T17:53:36;99995.31;;;19.62;58.42
69214;BME280;56325;47.030;18.518;2022-09-13T17:56:16;99987.13;;;19.45;59.03
69214;BME280;56325;47.030;18.518;2022-09-13T17:58:51;99990.97;;;19.42;59.45
69214;BME280;56325;47.030;18.518;2022-09-13T18:01:26;99993.00;;;19.42;59.41
69214;BME280;56325;47.030;18.518;2022-09-13T18:04:01;99985.06;;;19.27;59.92
69214;BME280;56325;47.030;18.518;2022-09-13T18:06:35;99988.22;;;19.18;60.37
69214;BME280;56325;47.030;18.518;2022-09-13T18:09:11;99980.69;;;19.13;59.67
69214;BME280;56325;47.030;18.518;2022-09-13T18:11:47;99976.84;;;18.97;60.64
69214;BME280;56325;47.030;18.518;2022-09-13T18:14:21;99989.19;;;19.02;60.10